Terminal Aerodrome Forecast
Issued by NWS

Home | Current Version | Previous Version | Graphics & Text | Print | Product List | Glossary On
Versions: 1 2 3 4 5 6 7 8 9 10 11 12 13 14 15
000
FTUS43 KBIS 250500 RRA
TAFMOT
TAF
KMOT 250543Z 2506/2606 31010KT 1SM -SN BR BKN002 OVC008
     FM250900 35009KT P6SM OVC008
     FM251800 24008KT P6SM SCT008 BKN015=

USA.gov is the U.S. government's official web portal to all federal, state and local government web resources and services.